Time;durP1;ratioP1;P1;durP2;ratioP2;P2;SDS_P1;SDS_P2;PMS_P1;PMS_P2;Temp;Humidity;BMP_temperature;BMP_pressure;BME280_temperature;BME280_humidity;BME280_pressure;Samples;Min_cycle;Max_cycle;Signal;HPM_P1;HPM_P2
2022/06/13 00:01:13;;;;;;;2.75;2.20;;;;;;;24.17;52.25;100448.27;1672975;84;21041;-87
2022/06/13 00:03:39;;;;;;;2.62;2.42;;;;;;;24.18;52.27;100455.45;1673238;85;21115;-87
2022/06/13 00:06:06;;;;;;;3.37;2.55;;;;;;;24.17;52.27;100452.44;1672761;85;21092;-87
2022/06/13 00:08:33;;;;;;;3.58;2.37;;;;;;;24.18;52.28;100446.30;1673071;85;21053;-87
2022/06/13 00:10:59;;;;;;;2.67;2.33;;;;;;;24.18;52.29;100451.28;1672995;84;21052;-86
2022/06/13 00:13:26;;;;;;;3.08;2.25;;;;;;;24.18;52.28;100444.34;1672874;84;21582;-87
2022/06/13 00:15:52;;;;;;;2.58;2.15;;;;;;;24.17;52.29;100435.77;1672903;83;22059;-87
2022/06/13 00:18:18;;;;;;;2.55;2.25;;;;;;;24.19;52.28;100435.42;1672880;84;21110;-87
2022/06/13 00:20:45;;;;;;;4.80;2.40;;;;;;;24.18;52.24;100434.61;1672697;84;21498;-87
2022/06/13 00:23:11;;;;;;;2.70;2.27;;;;;;;24.19;52.23;100437.59;1672845;84;21611;-87
2022/06/13 00:25:38;;;;;;;2.67;2.27;;;;;;;24.17;52.22;100430.20;1672971;84;21025;-87
2022/06/13 00:28:04;;;;;;;2.72;2.20;;;;;;;24.19;52.22;100428.47;1672766;84;21159;-87
2022/06/13 00:30:31;;;;;;;2.72;2.22;;;;;;;24.18;52.23;100430.44;1672898;84;21056;-87
2022/06/13 00:32:57;;;;;;;3.65;2.40;;;;;;;24.20;52.23;100427.28;1672853;84;21041;-87
2022/06/13 00:35:23;;;;;;;6.22;2.30;;;;;;;24.19;52.23;100435.42;1672877;84;21072;-87
2022/06/13 00:37:50;;;;;;;2.58;2.33;;;;;;;24.19;52.26;100429.25;1673049;84;21595;-87
2022/06/13 00:40:16;;;;;;;2.92;2.50;;;;;;;24.19;52.27;100434.81;1672731;85;21812;-87
2022/06/13 00:42:48;;;;;;;2.47;2.27;;;;;;;24.19;52.27;100433.42;1672756;84;21084;-87
2022/06/13 00:45:24;;;;;;;2.87;2.47;;;;;;;24.19;52.28;100433.42;1672965;85;21118;-87
2022/06/13 00:47:54;;;;;;;2.45;2.17;;;;;;;24.20;52.26;100437.83;1672644;85;21116;-87
2022/06/13 00:50:27;;;;;;;3.77;2.55;;;;;;;24.19;52.27;100438.98;1673028;84;21108;-87
2022/06/13 00:53:11;;;;;;;3.67;2.45;;;;;;;24.18;52.28;100434.61;1672779;85;21786;-87
2022/06/13 00:55:43;;;;;;;2.85;2.42;;;;;;;24.20;52.26;100438.41;1672060;84;21097;-86
2022/06/13 00:58:09;;;;;;;2.83;2.33;;;;;;;24.19;52.28;100436.81;1672793;84;21604;-86
2022/06/13 01:00:36;;;;;;;2.62;2.40;;;;;;;24.19;52.27;100436.81;1673081;85;21085;-87
2022/06/13 01:03:03;;;;;;;2.92;2.58;;;;;;;24.19;52.27;100442.37;1672968;84;21041;-87
2022/06/13 01:05:31;;;;;;;2.65;2.27;;;;;;;24.19;52.29;100438.20;1672688;84;21418;-87
2022/06/13 01:08:06;;;;;;;2.70;2.40;;;;;;;24.18;52.29;100433.80;1672936;84;21092;-87
2022/06/13 01:13:24;;;;;;;2.83;2.20;;;;;;;24.18;52.30;100431.83;1672746;85;21053;-87
2022/06/13 01:16:07;;;;;;;2.70;2.30;;;;;;;24.18;52.29;100428.23;1657782;84;21155;-87
2022/06/13 01:19:14;;;;;;;2.45;2.20;;;;;;;24.18;52.29;100437.96;1682606;84;21286;-87
2022/06/13 01:22:21;;;;;;;2.58;2.37;;;;;;;24.17;52.30;100430.78;1682305;83;21025;-87
2022/06/13 01:25:31;;;;;;;2.58;2.37;;;;;;;24.16;52.29;100431.36;1681083;84;21009;-87
2022/06/13 01:28:15;;;;;;;4.28;2.55;;;;;;;24.16;52.31;100431.93;1682279;83;21068;-87
2022/06/13 01:30:56;;;;;;;2.35;2.15;;;;;;;24.13;52.31;100430.06;1682832;85;21091;-87
2022/06/13 01:33:31;;;;;;;2.85;2.37;;;;;;;24.14;52.34;100440.61;1674551;83;21597;-87
2022/06/13 01:36:31;;;;;;;2.62;2.40;;;;;;;24.14;52.34;100437.83;1682094;83;21175;-87
2022/06/13 01:39:29;;;;;;;2.62;2.35;;;;;;;24.14;52.37;100446.17;1682564;83;21551;-87
2022/06/13 01:42:04;;;;;;;2.62;2.27;;;;;;;24.13;52.38;100439.80;1682529;83;21139;-87
2022/06/13 01:45:05;;;;;;;2.75;2.45;;;;;;;24.13;52.37;100441.77;1682529;84;21017;-87
2022/06/13 01:47:55;;;;;;;3.10;2.35;;;;;;;24.13;52.39;100444.54;1674238;83;21172;-87
2022/06/13 01:50:35;;;;;;;2.62;2.35;;;;;;;24.13;52.39;100444.54;1682084;84;21526;-87
2022/06/13 01:53:06;;;;;;;2.58;2.37;;;;;;;24.12;52.41;100443.73;1681465;84;21123;-87
2022/06/13 01:56:02;;;;;;;3.10;2.20;;;;;;;24.12;52.41;100440.95;1682268;83;22185;-87
2022/06/13 01:58:37;;;;;;;3.00;2.55;;;;;;;24.12;52.44;100443.73;1682585;85;21039;-87
2022/06/13 02:01:28;;;;;;;2.83;2.52;;;;;;;24.13;52.45;100447.32;1682075;83;22479;-88
2022/06/13 02:04:02;;;;;;;2.87;2.45;;;;;;;24.12;52.45;100449.28;1682415;83;21143;-87
2022/06/13 02:06:39;;;;;;;2.52;2.33;;;;;;;24.11;52.41;100446.27;1682251;83;21056;-87
2022/06/13 02:09:16;;;;;;;2.85;2.58;;;;;;;24.11;52.48;100451.83;1682171;83;21648;-87
2022/06/13 02:11:51;;;;;;;2.40;2.20;;;;;;;24.11;52.48;100441.28;1664731;85;21086;-87
2022/06/13 02:14:37;;;;;;;2.60;2.35;;;;;;;24.12;52.51;100451.25;1664715;85;21988;-87
2022/06/13 02:17:22;;;;;;;2.45;2.25;;;;;;;24.12;52.49;100445.69;1688021;83;21028;-87
2022/06/13 02:19:59;;;;;;;2.92;2.30;;;;;;;24.13;52.51;100450.09;1671932;84;21100;-87
2022/06/13 02:22:36;;;;;;;2.60;2.40;;;;;;;24.13;52.50;100458.44;1672445;85;21080;-87
2022/06/13 02:25:43;;;;;;;2.90;2.62;;;;;;;24.13;52.51;100454.27;1672757;85;21061;-87
2022/06/13 02:28:13;;;;;;;2.40;2.12;;;;;;;24.13;52.50;100459.25;1657810;85;21125;-87
2022/06/13 02:30:44;;;;;;;2.87;2.67;;;;;;;24.12;52.52;100455.42;1671250;85;21131;-86
2022/06/13 02:33:14;;;;;;;3.50;2.00;;;;;;;24.12;52.51;100467.35;1655468;85;21033;-87
2022/06/13 02:35:56;;;;;;;2.80;2.42;;;;;;;24.13;52.50;100466.20;1655864;85;21045;-86
2022/06/13 02:38:27;;;;;;;2.52;2.25;;;;;;;24.12;52.53;100465.96;1672609;84;21413;-87
2022/06/13 02:40:59;;;;;;;2.75;2.40;;;;;;;24.12;52.53;100470.13;1671401;84;21152;-87
2022/06/13 02:43:47;;;;;;;2.70;2.40;;;;;;;24.12;52.54;100464.57;1672232;84;21599;-87
2022/06/13 02:46:25;;;;;;;3.05;2.67;;;;;;;24.13;52.54;100474.53;1672598;84;21155;-87
2022/06/13 02:49:12;;;;;;;2.85;2.45;;;;;;;24.13;52.54;100486.23;1672288;84;21029;-87
2022/06/13 02:52:16;;;;;;;2.85;2.55;;;;;;;24.13;52.52;100480.09;1672138;84;21079;-87
2022/06/13 02:54:51;;;;;;;3.22;2.70;;;;;;;24.13;52.53;100477.31;1672268;84;21207;-87
2022/06/13 02:57:48;;;;;;;3.65;2.40;;;;;;;24.12;52.52;100481.25;1672530;84;21088;-87
2022/06/13 03:01:07;;;;;;;3.22;2.50;;;;;;;24.13;52.54;100493.99;1672406;85;21788;-87
2022/06/13 03:04:07;;;;;;;2.72;2.47;;;;;;;24.13;52.53;100480.67;1654732;85;21464;-88
2022/06/13 03:07:09;;;;;;;;;;;;;;;24.11;52.53;100482.97;1675219;84;21453;-87
2022/06/13 03:09:47;;;;;;;2.33;2.12;;;;;;;24.09;52.51;100476.39;1672638;85;21153;-87
2022/06/13 03:12:19;;;;;;;2.70;2.47;;;;;;;24.08;52.51;100483.11;1672421;84;21124;-87
2022/06/13 03:14:57;;;;;;;2.83;2.42;;;;;;;24.08;52.56;100492.84;1672752;84;21295;-87
2022/06/13 03:17:43;;;;;;;2.47;2.20;;;;;;;24.09;52.55;100489.48;1672494;84;21065;-87
2022/06/13 03:20:23;;;;;;;3.08;2.27;;;;;;;24.09;52.56;100488.09;1672885;84;21026;-87
2022/06/13 03:23:00;;;;;;;3.13;2.83;;;;;;;24.10;52.60;100499.45;1672494;84;22077;-87
2022/06/13 03:25:41;;;;;;;2.70;2.40;;;;;;;24.09;52.56;100492.26;1672916;84;21366;-87
2022/06/13 03:28:25;;;;;;;3.00;2.33;;;;;;;24.09;52.60;100493.65;1671870;85;21085;-87
2022/06/13 03:31:03;;;;;;;2.47;2.20;;;;;;;24.09;52.58;100493.08;1673213;85;21096;-87
2022/06/13 03:33:42;;;;;;;2.87;2.58;;;;;;;24.10;52.58;100491.11;1672960;84;21066;-87
2022/06/13 03:36:33;;;;;;;2.80;2.50;;;;;;;24.10;52.58;100489.72;1673113;85;21599;-87
2022/06/13 03:39:29;;;;;;;3.37;2.50;;;;;;;24.10;52.58;100496.06;1672722;85;21073;-87
2022/06/13 03:42:13;;;;;;;3.00;2.50;;;;;;;24.09;52.60;100493.08;1673021;84;21431;-87
2022/06/13 03:44:50;;;;;;;2.65;2.40;;;;;;;24.09;52.56;100498.63;1672888;84;21583;-87
2022/06/13 03:47:27;;;;;;;2.92;2.35;;;;;;;24.09;52.58;100492.26;1673007;84;21097;-87
2022/06/13 03:50:14;;;;;;;3.20;2.35;;;;;;;24.10;52.58;100499.45;1672937;84;21908;-87
2022/06/13 03:52:45;;;;;;;3.22;2.50;;;;;;;24.11;52.61;100493.52;1673265;85;21084;-87
2022/06/13 03:55:16;;;;;;;2.47;2.27;;;;;;;24.09;52.62;100494.46;1673128;84;21085;-87
2022/06/13 03:57:50;;;;;;;2.92;2.22;;;;;;;24.10;52.62;100502.23;1655321;85;21060;-86
2022/06/13 04:00:21;;;;;;;3.25;2.47;;;;;;;24.11;52.61;100502.43;1673833;85;21057;-86
2022/06/13 04:02:49;;;;;;;2.75;2.47;;;;;;;24.11;52.65;100503.82;1674541;85;21174;-85
2022/06/13 04:05:33;;;;;;;2.95;2.60;;;;;;;24.11;52.65;100503.82;1674056;84;21113;-86
2022/06/13 04:08:00;;;;;;;3.85;2.70;;;;;;;24.11;52.65;100504.64;1674080;85;21054;-87
2022/06/13 04:10:26;;;;;;;2.60;2.25;;;;;;;24.12;52.65;100513.79;1674238;85;21131;-85
2022/06/13 04:13:06;;;;;;;2.83;2.47;;;;;;;24.11;52.64;100506.02;1674254;84;20989;-87
2022/06/13 04:16:15;;;;;;;2.70;2.50;;;;;;;24.11;52.65;100502.43;1673285;84;21116;-86
2022/06/13 04:19:01;;;;;;;3.08;2.77;;;;;;;24.11;52.65;100507.41;1666490;84;21066;-86
2022/06/13 04:21:42;;;;;;;2.92;2.37;;;;;;;24.11;52.65;100506.02;1687868;85;21034;-86
2022/06/13 04:24:30;;;;;;;;;;;;;;;24.11;52.64;100508.80;1689318;84;21114;-86
2022/06/13 04:27:17;;;;;;;2.58;2.37;;;;;;;24.10;52.63;100503.61;1687957;83;20234;-86
2022/06/13 04:30:00;;;;;;;2.62;2.40;;;;;;;24.10;52.62;100511.95;1687987;85;21914;-87
2022/06/13 04:32:40;;;;;;;2.70;2.30;;;;;;;24.10;52.63;100517.52;1687599;84;21590;-87
2022/06/13 04:35:07;;;;;;;2.92;2.40;;;;;;;24.09;52.63;100512.53;1688208;83;21399;-87
2022/06/13 04:37:33;;;;;;;2.80;2.37;;;;;;;24.09;52.62;100516.70;1688180;85;21018;-87
2022/06/13 04:40:04;;;;;;;5.75;2.33;;;;;;;24.10;52.63;100511.95;1668222;84;21037;-87
2022/06/13 04:42:37;;;;;;;;;;;;;;;24.10;52.63;100512.73;1690774;83;21563;-87
2022/06/13 04:45:20;;;;;;;3.12;2.47;;;;;;;24.09;52.63;100510.33;1687630;85;20159;-87
2022/06/13 04:47:48;;;;;;;3.33;2.58;;;;;;;24.08;52.64;100516.45;1684632;84;21512;-87
2022/06/13 04:50:17;;;;;;;6.00;2.70;;;;;;;24.08;52.67;100524.80;1687539;83;21030;-87
2022/06/13 04:52:44;;;;;;;2.92;2.62;;;;;;;24.08;52.69;100523.41;1687447;83;21568;-87
2022/06/13 04:55:21;;;;;;;3.17;2.72;;;;;;;24.09;52.68;100529.20;1687690;83;21393;-87
2022/06/13 04:57:48;;;;;;;2.83;2.60;;;;;;;24.09;52.68;100526.42;1686784;85;21042;-87
2022/06/13 05:00:15;;;;;;;3.80;2.60;;;;;;;24.09;52.68;100520.87;1686859;83;21536;-86
2022/06/13 05:02:44;;;;;;;4.50;2.83;;;;;;;24.11;52.67;100530.22;1687530;85;21112;-87
2022/06/13 05:05:28;;;;;;;3.33;2.60;;;;;;;24.11;52.67;100530.22;1687506;83;21628;-86
2022/06/13 05:07:55;;;;;;;4.33;2.70;;;;;;;24.12;52.64;100529.08;1687956;83;21133;-87
2022/06/13 05:10:22;;;;;;;3.35;2.80;;;;;;;24.13;52.58;100534.30;1668106;85;21073;-87
2022/06/13 05:12:54;;;;;;;3.90;3.10;;;;;;;24.14;52.57;100530.94;1688355;83;21041;-85
2022/06/13 05:15:32;;;;;;;3.62;3.00;;;;;;;24.14;52.51;100531.72;1688504;85;21109;-85
2022/06/13 05:18:30;;;;;;;4.65;3.10;;;;;;;24.14;52.46;100531.72;1690711;83;21092;-87
2022/06/13 05:21:21;;;;;;;3.67;2.72;;;;;;;24.15;52.44;100539.52;1692537;83;21158;-87
2022/06/13 05:24:06;;;;;;;4.60;3.17;;;;;;;24.14;52.37;100540.06;1692232;83;21383;-86
2022/06/13 05:26:32;;;;;;;3.47;3.08;;;;;;;24.15;52.34;100543.69;1692584;84;21044;-87
2022/06/13 05:29:00;;;;;;;3.45;2.80;;;;;;;24.16;52.31;100543.11;1692335;83;21075;-87
2022/06/13 05:31:26;;;;;;;4.10;3.12;;;;;;;24.16;52.32;100542.53;1692407;84;21045;-86
2022/06/13 05:33:52;;;;;;;3.52;3.00;;;;;;;24.15;52.27;100538.13;1692548;83;21229;-86
2022/06/13 05:36:21;;;;;;;4.67;3.00;;;;;;;24.16;52.29;100539.76;1672323;84;21051;-86
2022/06/13 05:38:52;;;;;;;3.22;2.92;;;;;;;24.17;52.25;100544.74;1692504;83;21047;-86
2022/06/13 05:41:18;;;;;;;;;;;;;;;24.16;52.26;100535.59;1695245;83;21036;-86
2022/06/13 05:43:44;;;;;;;3.58;2.90;;;;;;;24.17;52.19;100544.74;1692330;83;20163;-86
2022/06/13 05:46:19;;;;;;;3.52;2.72;;;;;;;24.17;52.23;100549.72;1692653;83;21125;-87
2022/06/13 05:48:46;;;;;;;4.53;2.92;;;;;;;24.16;52.21;100545.31;1692275;84;21115;-86
2022/06/13 05:51:20;;;;;;;4.33;2.85;;;;;;;24.17;52.23;100535.83;1691151;83;21590;-87
2022/06/13 05:53:46;;;;;;;3.33;2.83;;;;;;;24.16;52.24;100539.76;1656704;84;21136;-86
2022/06/13 05:56:12;;;;;;;3.27;2.70;;;;;;;24.18;52.28;100535.25;1657299;86;21540;-86
2022/06/13 05:58:45;;;;;;;4.03;2.62;;;;;;;24.17;52.27;100531.66;1658261;84;21629;-86
2022/06/13 06:01:15;;;;;;;2.55;2.27;;;;;;;24.19;52.24;100535.48;1658515;85;21025;-86
2022/06/13 06:03:42;;;;;;;2.67;2.25;;;;;;;24.20;52.20;100533.73;1658390;85;21363;-86
2022/06/13 06:06:21;;;;;;;3.22;2.20;;;;;;;24.20;52.17;100538.48;1680489;84;21021;-86
2022/06/13 06:08:47;;;;;;;3.30;3.00;;;;;;;24.21;52.16;100550.65;1726285;83;21505;-87
2022/06/13 06:11:14;;;;;;;3.52;2.95;;;;;;;24.22;52.12;100544.52;1691623;84;21777;-87
2022/06/13 06:13:40;;;;;;;2.60;2.30;;;;;;;24.24;52.07;100547.16;1726392;82;21006;-86
2022/06/13 06:16:06;;;;;;;3.50;2.85;;;;;;;24.25;52.07;100543.80;1691696;83;21123;-86
2022/06/13 06:18:33;;;;;;;3.60;2.75;;;;;;;24.25;52.06;100547.41;1744810;81;21076;-87
2022/06/13 06:20:59;;;;;;;3.72;2.75;;;;;;;24.26;52.02;100553.20;1754602;81;21047;-87
2022/06/13 06:23:26;;;;;;;3.17;2.40;;;;;;;24.28;52.00;100555.61;1720933;83;21034;-87
2022/06/13 06:25:52;;;;;;;4.00;2.67;;;;;;;24.28;52.00;100552.83;1720913;82;21051;-87
2022/06/13 06:28:28;;;;;;;3.37;2.90;;;;;;;24.28;52.00;100559.20;1721132;83;21489;-87
2022/06/13 06:30:56;;;;;;;3.87;3.02;;;;;;;24.29;52.01;100556.66;1721309;83;21138;-87
2022/06/13 06:33:24;;;;;;;3.60;2.58;;;;;;;24.30;51.89;100560.26;1720917;83;21090;-87
2022/06/13 06:35:53;;;;;;;3.85;2.67;;;;;;;24.30;51.87;100551.92;1722412;83;21533;-86
2022/06/13 06:38:24;;;;;;;3.12;2.83;;;;;;;24.30;51.87;100556.91;1722930;83;21467;-86
2022/06/13 06:40:51;;;;;;;3.83;3.00;;;;;;;24.30;51.83;100553.31;1722642;83;21605;-87
2022/06/13 06:43:17;;;;;;;2.77;2.58;;;;;;;24.31;51.80;100553.55;1722683;83;21051;-86
2022/06/13 06:45:44;;;;;;;3.42;3.12;;;;;;;24.32;51.79;100546.80;1717337;83;21582;-86
2022/06/13 06:48:17;;;;;;;5.50;3.08;;;;;;;24.32;51.76;100544.02;1688205;83;21680;-86
2022/06/13 06:50:44;;;;;;;3.87;3.05;;;;;;;24.32;51.74;100549.01;1668705;85;21096;-86
2022/06/13 06:53:13;;;;;;;5.33;2.62;;;;;;;24.33;51.71;100545.66;1749869;81;21584;-87
2022/06/13 07:01:11;;;;;;;3.52;2.80;;;;;;;24.35;51.69;100552.50;1725529;81;21151;-86
2022/06/13 07:03:43;;;;;;;3.08;2.77;;;;;;;24.35;51.69;100546.13;1722504;81;21062;-86
2022/06/13 07:06:10;;;;;;;3.20;2.87;;;;;;;24.36;51.70;100549.12;1722481;83;21019;-87
2022/06/13 07:08:36;;;;;;;5.45;3.60;;;;;;;24.37;51.70;100550.75;1722316;83;21055;-86
2022/06/13 07:13:52;;;;;;;3.75;2.98;;;;;;;24.38;51.63;100553.77;1718587;82;21139;-87
2022/06/13 07:16:18;;;;;;;5.37;3.33;;;;;;;24.37;51.59;100550.17;1718696;82;21146;-87
2022/06/13 07:18:47;;;;;;;4.12;3.05;;;;;;;24.38;51.57;100549.59;1696315;82;21102;-87
2022/06/13 07:21:14;;;;;;;3.60;3.00;;;;;;;24.38;51.56;100549.02;1722452;81;21035;-86
2022/06/13 07:23:40;;;;;;;5.80;2.87;;;;;;;24.39;51.56;100552.03;1722568;83;21059;-86
2022/06/13 07:26:07;;;;;;;3.22;2.92;;;;;;;24.40;51.60;100548.67;1722710;83;21099;-85
2022/06/13 07:28:33;;;;;;;4.65;2.90;;;;;;;24.41;51.55;100553.87;1722342;82;20984;-87
2022/06/13 07:31:00;;;;;;;3.30;3.00;;;;;;;24.40;51.56;100545.29;1722783;83;21473;-87
2022/06/13 07:33:26;;;;;;;4.53;3.12;;;;;;;24.41;51.61;100555.26;1722719;83;21267;-86
2022/06/13 07:35:54;;;;;;;3.65;3.15;;;;;;;24.42;51.66;100556.89;1723446;81;21051;-86
2022/06/13 07:38:21;;;;;;;3.70;3.20;;;;;;;24.42;51.64;100556.89;1722305;83;21203;-87
2022/06/13 07:40:53;;;;;;;3.98;3.22;;;;;;;24.44;51.63;100557.94;1722612;82;21600;-87
2022/06/13 07:43:31;;;;;;;3.47;3.17;;;;;;;24.44;51.65;100559.33;1702061;83;21094;-87
2022/06/13 07:45:59;;;;;;;5.60;3.27;;;;;;;24.44;51.67;100559.33;1696845;83;21563;-87
2022/06/13 07:48:27;;;;;;;5.08;2.80;;;;;;;24.45;51.71;100562.32;1722394;81;21522;-87
2022/06/13 07:50:53;;;;;;;3.33;3.02;;;;;;;24.46;51.75;100562.56;1722673;82;21962;-87
2022/06/13 07:53:23;;;;;;;3.20;2.90;;;;;;;24.46;51.77;100564.77;1721113;81;21067;-87
2022/06/13 07:55:49;;;;;;;3.47;2.52;;;;;;;24.48;51.78;100563.03;1733363;81;21734;-86
2022/06/13 07:58:19;;;;;;;7.78;3.60;;;;;;;24.48;51.82;100569.41;1700350;83;21083;-87
2022/06/13 08:00:48;;;;;;;3.45;3.15;;;;;;;24.49;51.86;100571.00;1720678;82;21134;-86
2022/06/13 08:03:25;;;;;;;3.87;3.47;;;;;;;24.49;51.83;100565.44;1720258;83;21871;-87
2022/06/13 08:05:52;;;;;;;4.53;3.33;;;;;;;24.50;51.82;100562.09;1716943;83;21518;-87
2022/06/13 08:08:18;;;;;;;4.35;3.20;;;;;;;24.49;51.76;100557.67;1716782;83;21485;-87
2022/06/13 08:10:45;;;;;;;4.50;3.67;;;;;;;24.51;51.72;100556.19;1716894;83;21687;-86
2022/06/13 08:13:16;;;;;;;3.85;3.33;;;;;;;24.51;51.67;100564.53;1696154;83;21056;-86
2022/06/13 08:15:42;;;;;;;8.48;3.55;;;;;;;24.52;51.67;100566.73;1722392;83;21477;-86
2022/06/13 08:18:10;;;;;;;4.85;3.72;;;;;;;24.53;51.66;100565.55;1722201;81;21208;-87
2022/06/13 08:20:37;;;;;;;4.12;3.72;;;;;;;24.55;51.59;100565.45;1701554;83;21065;-86
2022/06/13 08:23:05;;;;;;;5.78;3.60;;;;;;;24.56;51.50;100562.91;1677921;82;21075;-87
2022/06/13 08:25:33;;;;;;;6.08;3.90;;;;;;;24.57;51.43;100565.89;1701468;82;21022;-86
2022/06/13 08:27:59;;;;;;;3.62;3.33;;;;;;;24.57;51.37;100561.72;1719673;81;21162;-87
2022/06/13 08:30:27;;;;;;;3.75;3.40;;;;;;;24.60;51.26;100561.62;1717668;81;21071;-87
2022/06/13 08:32:53;;;;;;;3.90;3.50;;;;;;;24.62;51.20;100557.08;1712907;81;21528;-87
2022/06/13 08:35:19;;;;;;;4.17;3.77;;;;;;;24.62;51.12;100555.11;1711039;83;21065;-87
2022/06/13 08:37:46;;;;;;;5.70;4.40;;;;;;;24.61;51.08;100556.30;1710852;83;21068;-87
2022/06/13 08:40:12;;;;;;;4.20;3.33;;;;;;;24.63;51.07;100553.14;1710718;82;21172;-88
2022/06/13 08:43:01;;;;;;;5.45;4.30;;;;;;;24.64;51.11;100552.80;1710865;81;21438;-87
2022/06/13 08:45:42;;;;;;;5.10;3.60;;;;;;;24.65;51.13;100549.44;1680131;84;21084;-87
2022/06/13 08:48:16;;;;;;;3.85;3.52;;;;;;;24.65;51.05;100554.42;1712606;81;21797;-87
2022/06/13 08:51:03;;;;;;;4.67;4.00;;;;;;;24.66;51.03;100544.89;1719523;82;21335;-87
2022/06/13 08:53:54;;;;;;;5.37;3.80;;;;;;;24.66;51.03;100548.25;1714953;81;21145;-87
2022/06/13 08:56:21;;;;;;;4.75;3.87;;;;;;;24.66;51.03;100548.25;1714319;82;21095;-87
2022/06/13 08:59:22;;;;;;;4.03;3.42;;;;;;;24.66;51.06;100549.06;1724733;81;21132;-86
2022/06/13 09:01:36;;;;;;;5.28;3.95;;;;;;;24.67;51.12;100548.49;1661808;83;21541;-87
2022/06/13 09:04:11;;;;;;;5.33;4.12;;;;;;;24.69;51.07;100553.14;1697590;83;21106;-87
2022/06/13 09:06:48;;;;;;;4.20;3.80;;;;;;;24.69;51.02;100555.92;1696068;83;21113;-87
2022/06/13 09:09:23;;;;;;;6.95;4.17;;;;;;;24.71;51.03;100557.75;1689399;83;21076;-87
2022/06/13 09:12:09;;;;;;;4.45;4.05;;;;;;;24.71;50.99;100560.53;1697020;82;21026;-87
2022/06/13 09:14:43;;;;;;;4.33;3.40;;;;;;;24.71;50.99;100554.97;1702859;83;21026;-86
2022/06/13 09:17:27;;;;;;;4.00;3.65;;;;;;;24.70;50.95;100559.72;1681888;83;21119;-87
2022/06/13 09:20:04;;;;;;;4.55;3.85;;;;;;;24.71;50.89;100553.00;1689094;83;21106;-86
2022/06/13 09:22:42;;;;;;;4.75;3.85;;;;;;;24.72;50.86;100552.42;1691771;83;21108;-86
2022/06/13 09:25:32;;;;;;;4.58;3.67;;;;;;;24.73;50.91;100550.70;1693254;81;21091;-86
2022/06/13 09:28:13;;;;;;;4.50;3.72;;;;;;;24.72;50.93;100557.41;1713024;81;21558;-86
2022/06/13 09:30:51;;;;;;;5.50;3.80;;;;;;;24.72;50.93;100550.45;1711991;81;21115;-87
2022/06/13 09:33:28;;;;;;;4.40;3.87;;;;;;;24.72;50.89;100549.06;1709736;83;21204;-87
2022/06/13 09:36:07;;;;;;;5.60;3.58;;;;;;;24.73;50.88;100551.27;1710652;81;21463;-87
2022/06/13 09:38:40;;;;;;;4.17;3.60;;;;;;;24.73;50.92;100551.27;1710362;83;21064;-87
2022/06/13 09:41:30;;;;;;;7.33;3.55;;;;;;;24.74;50.92;100556.47;1710431;82;21088;-87
2022/06/13 09:44:31;;;;;;;4.67;3.87;;;;;;;24.76;50.97;100550.56;1709861;82;21119;-87
2022/06/13 09:47:26;;;;;;;6.45;4.28;;;;;;;24.76;50.97;100549.98;1715368;82;21150;-87
2022/06/13 09:50:43;;;;;;;4.50;3.83;;;;;;;24.76;50.94;100542.22;1716773;82;21038;-87
2022/06/13 09:53:39;;;;;;;4.10;3.70;;;;;;;24.77;50.95;100541.06;1717952;82;21074;-87
2022/06/13 09:56:36;;;;;;;5.12;3.85;;;;;;;24.77;50.89;100536.88;1716712;82;21039;-87
2022/06/13 09:59:26;;;;;;;5.45;3.85;;;;;;;24.78;50.79;100528.16;1718112;82;21041;-87
2022/06/13 10:02:01;;;;;;;5.17;4.05;;;;;;;24.80;50.74;100523.66;1717940;82;21571;-87
2022/06/13 10:04:32;;;;;;;5.00;4.08;;;;;;;24.80;50.75;100521.68;1718942;82;21076;-87
2022/06/13 10:07:25;;;;;;;4.50;4.08;;;;;;;24.81;50.79;100522.50;1743255;82;21066;-87
2022/06/13 10:10:13;;;;;;;5.72;4.20;;;;;;;24.81;50.84;100524.70;1744282;81;21089;-87
2022/06/13 10:12:51;;;;;;;6.03;4.90;;;;;;;24.82;50.81;100527.72;1690449;84;21575;-87
2022/06/13 10:15:49;;;;;;;4.62;4.05;;;;;;;24.84;50.74;100519.81;1675847;84;21952;-87
2022/06/13 10:18:45;;;;;;;5.12;4.37;;;;;;;24.95;50.51;100520.95;1686466;83;21658;-87
2022/06/13 10:21:29;;;;;;;6.42;4.00;;;;;;;24.97;50.36;100522.81;1700333;81;21125;-87
2022/06/13 10:24:04;;;;;;;4.37;3.98;;;;;;;24.95;50.40;100520.16;1700687;82;21514;-87
2022/06/13 10:27:06;;;;;;;6.80;4.10;;;;;;;24.94;50.52;100524.11;1726866;81;21586;-87
2022/06/13 10:30:11;;;;;;;3.75;3.45;;;;;;;24.91;50.70;100519.23;1721526;81;21102;-87
2022/06/13 10:33:07;;;;;;;5.72;3.98;;;;;;;24.88;50.76;100518.55;1711804;83;21595;-86
2022/06/13 10:35:51;;;;;;;5.72;3.77;;;;;;;24.84;50.82;100515.64;1694146;83;21083;-87
2022/06/13 10:38:41;;;;;;;4.00;3.60;;;;;;;24.80;50.87;100508.34;1727455;81;21049;-87
2022/06/13 10:41:08;;;;;;;4.30;3.77;;;;;;;24.78;50.95;100512.08;1727489;83;21052;-87
2022/06/13 10:43:35;;;;;;;5.62;3.98;;;;;;;24.75;51.01;100508.02;1721399;81;21391;-87
2022/06/13 10:46:01;;;;;;;5.75;3.92;;;;;;;24.74;51.06;100507.78;1727342;81;21057;-87
2022/06/13 10:48:46;;;;;;;5.08;3.72;;;;;;;24.74;51.11;100505.60;1712104;82;21060;-87
2022/06/13 10:51:12;;;;;;;4.12;3.75;;;;;;;24.72;51.16;100495.39;1727485;81;21568;-87
2022/06/13 10:54:07;;;;;;;4.15;3.75;;;;;;;24.70;51.19;100495.73;1727393;81;21112;-87
2022/06/13 10:56:44;;;;;;;4.33;3.80;;;;;;;24.69;51.23;100490.55;1726819;81;21132;-87
2022/06/13 10:59:27;;;;;;;4.30;3.60;;;;;;;24.68;51.25;100486.95;1698448;83;21559;-87
2022/06/13 11:02:07;;;;;;;4.08;3.67;;;;;;;24.67;51.29;100484.52;1710374;82;21022;-87
2022/06/13 11:04:39;;;;;;;4.40;3.87;;;;;;;24.66;51.34;100485.66;1678920;84;21522;-87
2022/06/13 11:07:16;;;;;;;4.75;3.90;;;;;;;24.65;51.38;100479.31;1722439;81;21065;-87
2022/06/13 11:09:47;;;;;;;4.20;3.80;;;;;;;24.65;51.40;100481.29;1721709;82;21097;-87
2022/06/13 11:12:24;;;;;;;5.50;3.92;;;;;;;24.65;51.44;100469.58;1712601;82;21019;-87
2022/06/13 11:23:25;;;;;;;5.70;3.65;;;;;;;24.62;51.58;100451.38;1645061;86;21231;-87
2022/06/13 11:25:58;;;;;;;4.78;4.00;;;;;;;24.61;51.60;100446.42;1683832;83;21536;-87
2022/06/13 11:28:27;;;;;;;4.55;4.00;;;;;;;24.62;51.62;100444.42;1727641;81;21562;-88
2022/06/13 11:31:13;;;;;;;4.03;3.60;;;;;;;24.61;51.64;100448.39;1727407;83;21105;-87
2022/06/13 11:33:40;;;;;;;4.35;3.95;;;;;;;24.61;51.74;100449.20;1711169;83;21466;-87
2022/06/13 11:36:21;;;;;;;4.35;3.83;;;;;;;24.60;51.80;100449.54;1727444;81;21153;-87
2022/06/13 11:39:01;;;;;;;5.87;3.40;;;;;;;24.61;51.83;100445.61;1722399;83;21382;-87
2022/06/13 11:41:44;;;;;;;3.92;3.52;;;;;;;24.58;51.84;100427.06;1727504;81;21501;-87
2022/06/13 11:44:19;;;;;;;4.00;3.62;;;;;;;24.60;51.81;100438.42;1727661;81;21090;-87
2022/06/13 11:46:58;;;;;;;5.03;3.67;;;;;;;24.59;51.82;100441.78;1727506;83;21112;-87
2022/06/13 11:49:33;;;;;;;4.37;3.90;;;;;;;24.60;51.84;100448.97;1727006;81;21170;-87
2022/06/13 11:52:08;;;;;;;4.97;3.92;;;;;;;24.59;51.83;100451.52;1712223;83;21508;-87
2022/06/13 11:54:56;;;;;;;4.20;3.80;;;;;;;24.60;51.84;100462.06;1726259;82;21030;-87
2022/06/13 11:57:31;;;;;;;4.28;3.87;;;;;;;24.58;51.88;100469.36;1696503;83;39516;-87
2022/06/13 12:00:21;;;;;;;4.30;3.72;;;;;;;24.58;51.87;100466.58;1712203;82;21568;-87
2022/06/13 12:02:55;;;;;;;4.15;3.75;;;;;;;24.58;51.85;100463.22;1727495;83;21468;-86
2022/06/13 12:05:35;;;;;;;4.67;3.80;;;;;;;24.57;51.84;100468.55;1722434;81;21436;-87
2022/06/13 12:08:19;;;;;;;4.05;3.65;;;;;;;24.57;51.83;100467.73;1712262;82;21473;-87
2022/06/13 12:10:59;;;;;;;3.85;3.45;;;;;;;24.57;51.84;100465.76;1694477;83;21140;-85
2022/06/13 12:13:26;;;;;;;6.40;3.98;;;;;;;24.56;51.84;100464.16;1695312;83;21757;-88
2022/06/13 12:16:18;;;;;;;4.72;3.90;;;;;;;24.56;51.83;100450.84;1727564;82;21972;-86
2022/06/13 12:19:25;;;;;;;3.80;3.40;;;;;;;24.55;51.83;100455.58;1712308;83;21551;-86
2022/06/13 12:22:34;;;;;;;3.92;3.47;;;;;;;24.54;51.85;100451.75;1727917;81;21069;-87
2022/06/13 12:25:17;;;;;;;3.90;3.25;;;;;;;24.54;51.87;100451.75;1721840;82;21504;-86
2022/06/13 12:27:52;;;;;;;;;;;;;;;24.52;51.91;100491.06;1725247;81;21636;-86
2022/06/13 12:30:56;;;;;;;4.95;3.80;;;;;;;24.51;51.98;100499.75;1722243;83;21270;-87